createdAt,value
2023-02-23T00:01:02.295Z,11.60
2023-02-23T00:04:06.739Z,11.60
2023-02-23T00:07:10.509Z,11.60
2023-02-23T00:10:15.017Z,11.50
2023-02-23T00:13:18.411Z,11.60
2023-02-23T00:16:22.512Z,11.60
2023-02-23T00:19:27.103Z,11.60
2023-02-23T00:22:29.951Z,11.50
2023-02-23T00:25:32.781Z,11.60
2023-02-23T00:28:35.650Z,11.50
2023-02-23T00:31:38.705Z,11.50
2023-02-23T00:34:43.023Z,11.50
2023-02-23T00:37:47.356Z,11.50
2023-02-23T00:40:50.232Z,11.50
2023-02-23T00:43:54.954Z,11.50
2023-02-23T00:46:57.794Z,11.50
2023-02-23T00:50:02.040Z,11.50
2023-02-23T00:53:04.936Z,11.60
2023-02-23T00:56:09.625Z,11.60
2023-02-23T00:59:13.176Z,11.50
2023-02-23T01:02:16.077Z,11.60
2023-02-23T01:05:22.139Z,11.60
2023-02-23T01:08:25.041Z,11.70
2023-02-23T01:11:30.998Z,11.70
2023-02-23T01:14:33.960Z,11.60
2023-02-23T01:17:36.827Z,11.60
2023-02-23T01:20:42.469Z,11.60
2023-02-23T01:23:45.583Z,11.50
2023-02-23T01:26:48.668Z,11.60
2023-02-23T01:29:51.520Z,11.60
2023-02-23T01:32:54.544Z,11.60
2023-02-23T01:36:01.997Z,11.60
2023-02-23T01:39:07.692Z,11.50
2023-02-23T01:42:13.773Z,11.60
2023-02-23T01:45:30.747Z,11.60
2023-02-23T01:48:37.270Z,11.50
2023-02-23T01:51:44.398Z,11.40
2023-02-23T01:54:51.655Z,11.40
2023-02-23T01:57:59.514Z,11.30
2023-02-23T02:01:03.339Z,11.30
2023-02-23T02:04:06.788Z,11.30
2023-02-23T02:07:14.210Z,11.30
2023-02-23T02:10:34.092Z,11.30
2023-02-23T02:13:38.098Z,11.30
2023-02-23T02:17:02.474Z,11.30
2023-02-23T02:20:45.415Z,11.20
2023-02-23T02:24:10.962Z,11.20
2023-02-23T02:27:27.351Z,11.30
2023-02-23T02:30:49.016Z,11.30
2023-02-23T02:34:15.926Z,11.30
2023-02-23T02:38:04.987Z,11.30
2023-02-23T02:41:17.520Z,11.40
2023-02-23T02:44:30.862Z,11.40
2023-02-23T02:47:40.026Z,11.40
2023-02-23T02:50:46.774Z,11.50
2023-02-23T02:53:54.592Z,11.50
2023-02-23T02:57:02.448Z,11.50
2023-02-23T03:00:24.216Z,11.60
2023-02-23T03:03:49.843Z,11.50
2023-02-23T03:07:17.507Z,11.50
2023-02-23T03:10:44.266Z,11.50
2023-02-23T03:14:18.615Z,11.60
2023-02-23T03:17:49.900Z,11.50
2023-02-23T03:21:14.845Z,11.40
2023-02-23T03:24:42.435Z,11.40
2023-02-23T03:28:10.060Z,11.40
2023-02-23T03:31:40.162Z,11.50
2023-02-23T03:35:05.643Z,11.50
2023-02-23T03:38:34.284Z,11.50
2023-02-23T03:41:56.792Z,11.40
2023-02-23T03:45:20.225Z,11.40
2023-02-23T03:48:44.715Z,11.30
2023-02-23T03:52:21.868Z,11.30
2023-02-23T03:55:45.792Z,11.30
2023-02-23T03:59:11.463Z,11.30
2023-02-23T04:02:34.962Z,11.30
2023-02-23T04:05:59.305Z,11.30
2023-02-23T04:09:23.496Z,11.30
2023-02-23T04:12:55.983Z,11.20
2023-02-23T04:16:01.057Z,11.20
2023-02-23T04:19:03.901Z,11.10
2023-02-23T04:22:08.089Z,11.10
2023-02-23T04:25:11.860Z,11.00
2023-02-23T04:28:15.018Z,11.00
2023-02-23T04:31:18.927Z,11.00
2023-02-23T04:34:22.018Z,10.90
2023-02-23T04:37:26.268Z,10.90
2023-02-23T04:40:29.300Z,10.90
2023-02-23T04:43:32.153Z,10.80
2023-02-23T04:46:35.024Z,10.80
2023-02-23T04:49:37.893Z,10.80
2023-02-23T04:52:42.998Z,10.70
2023-02-23T04:55:47.353Z,10.70
2023-02-23T04:58:50.457Z,10.60
2023-02-23T05:01:53.334Z,10.60
2023-02-23T05:04:56.267Z,10.60
2023-02-23T05:08:01.078Z,10.50
2023-02-23T05:11:03.943Z,10.50
2023-02-23T05:14:06.808Z,10.50
2023-02-23T05:17:09.679Z,10.50
2023-02-23T05:20:14.536Z,10.40
2023-02-23T05:23:18.837Z,10.30
2023-02-23T05:26:21.731Z,10.30
2023-02-23T05:29:24.571Z,10.20
2023-02-23T05:32:27.451Z,10.20
2023-02-23T05:35:30.395Z,10.30
2023-02-23T05:38:34.617Z,10.20
2023-02-23T05:41:37.439Z,10.30
2023-02-23T05:44:40.278Z,10.20
2023-02-23T05:47:43.143Z,10.20
2023-02-23T05:50:45.991Z,10.20
2023-02-23T05:53:50.263Z,10.20
2023-02-23T05:56:53.426Z,10.20
2023-02-23T05:59:56.277Z,10.20
2023-02-23T06:02:59.127Z,10.20
2023-02-23T06:06:01.960Z,10.20
2023-02-23T06:09:06.716Z,10.20
2023-02-23T06:12:10.126Z,10.20
2023-02-23T06:15:13.081Z,10.20
2023-02-23T06:18:17.057Z,10.20
2023-02-23T06:21:20.769Z,10.20
2023-02-23T06:24:25.142Z,10.20
2023-02-23T06:27:27.982Z,10.30
2023-02-23T06:30:31.009Z,10.30
2023-02-23T06:33:34.138Z,10.40
2023-02-23T06:36:37.296Z,10.40
2023-02-23T06:39:41.483Z,10.30
2023-02-23T06:42:44.297Z,10.40
2023-02-23T06:45:47.794Z,10.40
2023-02-23T06:48:50.639Z,10.50
2023-02-23T06:51:53.483Z,10.50
2023-02-23T06:54:57.686Z,10.50
2023-02-23T06:58:00.550Z,10.50
2023-02-23T07:01:03.743Z,10.50
2023-02-23T07:04:06.619Z,10.50
2023-02-23T07:07:09.734Z,10.50
2023-02-23T07:10:14.511Z,10.50
2023-02-23T07:13:17.439Z,10.60
2023-02-23T07:16:20.380Z,10.60
2023-02-23T07:19:23.386Z,10.60
2023-02-23T07:22:29.382Z,10.60
2023-02-23T07:25:33.583Z,10.70
2023-02-23T07:28:37.085Z,10.70
2023-02-23T07:31:40.925Z,10.70
2023-02-23T07:34:43.879Z,10.80
2023-02-23T07:37:46.811Z,10.90
2023-02-23T07:40:52.662Z,10.90
2023-02-23T07:43:55.545Z,10.90
2023-02-23T07:46:58.432Z,10.90
2023-02-23T07:50:03.485Z,10.90
2023-02-23T07:53:06.394Z,10.90
2023-02-23T07:56:12.010Z,10.90
2023-02-23T07:59:15.344Z,10.90
2023-02-23T08:02:18.187Z,10.90
2023-02-23T08:05:21.299Z,10.90
2023-02-23T08:08:24.695Z,10.90
2023-02-23T08:11:29.625Z,11.00
2023-02-23T08:14:32.714Z,11.10
2023-02-23T08:17:35.605Z,11.10
2023-02-23T08:20:38.462Z,11.20
2023-02-23T08:23:41.323Z,11.20
2023-02-23T08:26:45.537Z,11.20
2023-02-23T08:29:48.476Z,11.20
2023-02-23T08:32:51.724Z,11.20
2023-02-23T08:35:54.599Z,11.30
2023-02-23T08:38:58.049Z,11.20
2023-02-23T08:42:02.257Z,11.20
2023-02-23T08:45:08.396Z,11.30
2023-02-23T08:48:11.422Z,11.40
2023-02-23T08:51:15.300Z,11.40
2023-02-23T08:54:18.772Z,11.40
2023-02-23T08:57:22.970Z,11.50
2023-02-23T09:00:25.931Z,11.50
2023-02-23T09:03:30.625Z,11.50
2023-02-23T09:06:35.242Z,11.50
2023-02-23T09:09:38.135Z,11.50
2023-02-23T09:12:42.547Z,11.50
2023-02-23T09:15:45.425Z,11.60
2023-02-23T09:18:48.277Z,11.70
2023-02-23T09:21:51.132Z,11.80
2023-02-23T09:24:54.039Z,11.80
2023-02-23T09:27:59.661Z,11.90
2023-02-23T09:31:07.319Z,11.90
2023-02-23T09:34:10.262Z,11.90
2023-02-23T09:37:13.133Z,12.00
2023-02-23T09:40:18.630Z,12.10
2023-02-23T09:43:28.437Z,12.10
2023-02-23T09:46:39.272Z,12.10
2023-02-23T09:49:45.474Z,12.20
2023-02-23T09:52:53.556Z,12.40
2023-02-23T09:55:58.618Z,12.40
2023-02-23T09:59:03.637Z,12.30
2023-02-23T10:02:16.588Z,12.40
2023-02-23T10:05:20.360Z,12.40
2023-02-23T10:08:31.651Z,12.50
2023-02-23T10:11:42.072Z,12.40
2023-02-23T10:15:04.087Z,12.60
2023-02-23T10:18:17.184Z,12.50
2023-02-23T10:21:25.550Z,12.70
2023-02-23T10:24:34.004Z,12.80
2023-02-23T10:27:41.901Z,12.90
2023-02-23T10:30:47.364Z,12.90
2023-02-23T10:33:53.376Z,13.00
2023-02-23T10:37:01.782Z,13.00
2023-02-23T10:40:05.610Z,13.00
2023-02-23T10:43:08.651Z,12.90
2023-02-23T10:46:22.120Z,12.90
2023-02-23T10:49:30.441Z,13.00
2023-02-23T10:52:42.841Z,13.00
2023-02-23T10:55:47.092Z,13.00
2023-02-23T10:58:52.052Z,13.00
2023-02-23T11:02:02.490Z,13.10
2023-02-23T11:05:07.338Z,12.90
2023-02-23T11:08:22.724Z,13.00
2023-02-23T11:11:28.922Z,13.10
2023-02-23T11:14:33.300Z,13.10
2023-02-23T11:17:38.917Z,13.20
2023-02-23T11:20:43.220Z,13.10
2023-02-23T11:23:46.142Z,13.10
2023-02-23T11:26:51.680Z,13.20
2023-02-23T11:29:57.321Z,13.20
2023-02-23T11:33:10.916Z,13.00
2023-02-23T11:36:28.482Z,12.90
2023-02-23T11:39:32.658Z,12.90
2023-02-23T11:42:35.724Z,13.00
2023-02-23T11:45:46.672Z,13.10
2023-02-23T11:48:56.058Z,13.00
2023-02-23T11:51:59.465Z,13.10
2023-02-23T11:55:07.189Z,13.10
2023-02-23T11:58:26.813Z,13.20
2023-02-23T12:01:44.571Z,13.30
2023-02-23T12:04:48.912Z,13.40
2023-02-23T12:07:58.325Z,13.50
2023-02-23T12:11:05.239Z,13.40
2023-02-23T12:14:18.411Z,13.50
2023-02-23T12:17:27.153Z,13.50
2023-02-23T12:20:37.721Z,13.50
2023-02-23T12:23:44.294Z,13.50
2023-02-23T12:26:52.430Z,13.70
2023-02-23T12:30:08.336Z,13.60
2023-02-23T12:33:16.336Z,13.60
2023-02-23T12:36:26.660Z,13.60
2023-02-23T12:39:33.858Z,13.70
2023-02-23T12:42:43.841Z,13.70
2023-02-23T12:45:54.100Z,13.80
2023-02-23T12:49:05.256Z,13.50
2023-02-23T12:52:14.711Z,13.50
2023-02-23T12:55:28.342Z,13.50
2023-02-23T12:58:40.545Z,13.50
2023-02-23T13:01:49.120Z,13.50
2023-02-23T13:05:22.617Z,13.60
2023-02-23T13:08:35.570Z,13.70
2023-02-23T13:11:55.245Z,13.80
2023-02-23T13:15:09.106Z,14.00
2023-02-23T13:18:19.757Z,14.00
2023-02-23T13:21:28.190Z,14.00
2023-02-23T13:24:38.606Z,14.10
2023-02-23T13:27:48.374Z,14.10
2023-02-23T13:30:51.333Z,14.00
2023-02-23T13:33:58.744Z,14.00
2023-02-23T13:37:05.148Z,13.90
2023-02-23T13:40:21.185Z,13.90
2023-02-23T13:43:30.396Z,14.00
2023-02-23T13:46:45.456Z,14.10
2023-02-23T13:49:55.789Z,14.00
2023-02-23T13:53:04.704Z,14.10
2023-02-23T13:56:11.535Z,14.30
2023-02-23T13:59:19.262Z,14.20
2023-02-23T14:02:36.019Z,14.50
2023-02-23T14:05:44.804Z,14.40
2023-02-23T14:08:55.493Z,14.60
2023-02-23T14:12:05.678Z,14.60
2023-02-23T14:15:43.699Z,14.70
2023-02-23T14:19:05.368Z,14.60
2023-02-23T14:22:11.496Z,14.60
2023-02-23T14:25:46.715Z,14.70
2023-02-23T14:29:18.010Z,14.60
2023-02-23T14:32:31.789Z,14.70
2023-02-23T14:35:45.651Z,14.70
2023-02-23T14:38:51.947Z,14.50
2023-02-23T14:41:56.529Z,14.50
2023-02-23T14:45:06.775Z,14.50
2023-02-23T14:48:15.704Z,14.50
2023-02-23T14:51:25.672Z,14.40
2023-02-23T14:54:33.749Z,14.40
2023-02-23T14:57:39.088Z,14.50
2023-02-23T15:00:45.423Z,14.40
2023-02-23T15:04:06.824Z,14.40
2023-02-23T15:07:24.285Z,14.40
2023-02-23T15:10:30.864Z,14.30
2023-02-23T15:13:39.720Z,14.40
2023-02-23T15:16:45.952Z,14.40
2023-02-23T15:19:51.470Z,14.20
2023-02-23T15:22:57.535Z,14.10
2023-02-23T15:26:03.086Z,14.10
2023-02-23T15:29:15.156Z,14.20
2023-02-23T15:32:24.906Z,14.20
2023-02-23T15:35:28.712Z,14.30
2023-02-23T15:38:43.568Z,14.30
2023-02-23T15:41:49.356Z,14.20
2023-02-23T15:44:59.157Z,14.00
2023-02-23T15:48:07.515Z,14.10
2023-02-23T15:51:24.740Z,14.00
2023-02-23T15:54:31.419Z,14.10
2023-02-23T15:57:43.780Z,14.20
2023-02-23T16:00:52.372Z,14.20
2023-02-23T16:04:02.490Z,14.20
2023-02-23T16:07:15.666Z,14.20
2023-02-23T16:10:23.418Z,14.10
2023-02-23T16:13:27.286Z,14.10
2023-02-23T16:16:30.487Z,14.10
2023-02-23T16:19:40.621Z,14.10
2023-02-23T16:22:46.966Z,14.10
2023-02-23T16:25:54.454Z,14.00
2023-02-23T16:28:59.690Z,14.10
2023-02-23T16:32:04.251Z,14.20
2023-02-23T16:35:17.840Z,14.20
2023-02-23T16:38:26.340Z,14.20
2023-02-23T16:41:31.744Z,14.20
2023-02-23T16:44:43.492Z,14.20
2023-02-23T16:47:48.696Z,14.20
2023-02-23T16:50:53.125Z,14.20
2023-02-23T16:53:55.982Z,14.20
2023-02-23T16:56:58.881Z,14.10
2023-02-23T17:00:01.737Z,14.10
2023-02-23T17:03:06.206Z,14.10
2023-02-23T17:06:10.492Z,14.00
2023-02-23T17:09:13.818Z,14.00
2023-02-23T17:12:21.741Z,14.00
2023-02-23T17:15:27.366Z,14.00
2023-02-23T17:18:31.974Z,13.90
2023-02-23T17:21:36.270Z,13.90
2023-02-23T17:24:39.155Z,13.80
2023-02-23T17:27:41.997Z,13.80
2023-02-23T17:30:45.258Z,13.80
2023-02-23T17:33:49.114Z,13.70
2023-02-23T17:36:53.507Z,13.60
2023-02-23T17:39:56.422Z,13.60
2023-02-23T17:43:01.413Z,13.50
2023-02-23T17:46:04.956Z,13.40
2023-02-23T17:49:07.875Z,13.40
2023-02-23T17:52:12.083Z,13.30
2023-02-23T17:55:15.317Z,13.30
2023-02-23T17:58:18.275Z,13.20
2023-02-23T18:01:21.492Z,13.10
2023-02-23T18:04:24.537Z,13.00
2023-02-23T18:07:30.122Z,13.00
2023-02-23T18:10:36.763Z,12.90
2023-02-23T18:13:39.849Z,12.80
2023-02-23T18:16:42.767Z,12.80
2023-02-23T18:19:47.026Z,12.70
2023-02-23T18:22:52.168Z,12.60
2023-02-23T18:25:55.155Z,12.50
2023-02-23T18:28:58.032Z,12.50
2023-02-23T18:32:02.664Z,12.40
2023-02-23T18:35:06.165Z,12.40
2023-02-23T18:38:11.956Z,12.30
2023-02-23T18:41:16.035Z,12.20
2023-02-23T18:44:19.331Z,12.10
2023-02-23T18:47:22.229Z,12.00
2023-02-23T18:50:26.240Z,12.00
2023-02-23T18:53:30.642Z,12.00
2023-02-23T18:56:33.519Z,11.90
2023-02-23T18:59:36.485Z,11.90
2023-02-23T19:02:39.349Z,11.80
2023-02-23T19:05:52.914Z,11.80
2023-02-23T19:08:59.545Z,11.70
2023-02-23T19:12:02.502Z,11.70
2023-02-23T19:15:07.135Z,11.60
2023-02-23T19:18:10.154Z,11.60
2023-02-23T19:21:13.098Z,11.60
2023-02-23T19:24:17.590Z,11.50
2023-02-23T19:27:21.244Z,11.50
2023-02-23T19:30:24.516Z,11.40
2023-02-23T19:33:27.591Z,11.30
2023-02-23T19:36:31.700Z,11.30
2023-02-23T19:39:36.522Z,11.20
2023-02-23T19:42:43.584Z,11.20
2023-02-23T19:45:46.862Z,11.20
2023-02-23T19:48:52.026Z,11.20
2023-02-23T19:51:54.958Z,11.20
2023-02-23T19:54:59.270Z,11.10
2023-02-23T19:58:02.152Z,11.10
2023-02-23T20:01:06.057Z,11.00
2023-02-23T20:04:09.817Z,11.00
2023-02-23T20:07:13.113Z,10.90
2023-02-23T20:10:17.880Z,10.90
2023-02-23T20:13:23.455Z,10.90
2023-02-23T20:16:29.509Z,10.80
2023-02-23T20:19:32.572Z,10.80
2023-02-23T20:22:36.281Z,10.80
2023-02-23T20:25:43.453Z,10.80
2023-02-23T20:28:46.811Z,10.70
2023-02-23T20:31:52.219Z,10.70
2023-02-23T20:34:55.421Z,10.70
2023-02-23T20:37:58.275Z,10.70
2023-02-23T20:41:03.625Z,10.70
2023-02-23T20:44:06.632Z,10.60
2023-02-23T20:47:09.916Z,10.60
2023-02-23T20:50:13.707Z,10.60
2023-02-23T20:53:16.974Z,10.60
2023-02-23T20:56:23.565Z,10.60
2023-02-23T20:59:30.669Z,10.60
2023-02-23T21:02:33.658Z,10.60
2023-02-23T21:05:40.972Z,10.60
2023-02-23T21:08:46.205Z,10.70
2023-02-23T21:11:50.453Z,10.70
2023-02-23T21:14:53.417Z,10.70
2023-02-23T21:17:56.612Z,10.80
2023-02-23T21:21:10.025Z,10.80
2023-02-23T21:24:16.356Z,10.80
2023-02-23T21:27:22.565Z,10.70
2023-02-23T21:30:29.777Z,10.70
2023-02-23T21:33:33.154Z,10.70
2023-02-23T21:36:36.952Z,10.70
2023-02-23T21:39:41.419Z,10.80
2023-02-23T21:42:45.908Z,10.70
2023-02-23T21:45:49.519Z,10.70
2023-02-23T21:48:52.832Z,10.70
2023-02-23T21:51:57.875Z,10.70
2023-02-23T21:55:03.891Z,10.70
2023-02-23T21:58:12.073Z,10.80
2023-02-23T22:01:17.808Z,10.70
2023-02-23T22:04:20.703Z,10.70
2023-02-23T22:07:23.604Z,10.60
2023-02-23T22:10:26.573Z,10.60
2023-02-23T22:13:30.795Z,10.60
2023-02-23T22:16:35.789Z,10.60
2023-02-23T22:19:38.723Z,10.60
2023-02-23T22:22:42.863Z,10.60
2023-02-23T22:25:46.968Z,10.50
2023-02-23T22:28:51.595Z,10.50
2023-02-23T22:31:54.669Z,10.50
2023-02-23T22:34:57.627Z,10.50
2023-02-23T22:38:01.575Z,10.40
2023-02-23T22:41:07.249Z,10.40
2023-02-23T22:44:13.497Z,10.40
2023-02-23T22:47:16.393Z,10.40
2023-02-23T22:50:19.566Z,10.30
2023-02-23T22:53:22.490Z,10.30
2023-02-23T22:56:25.393Z,10.30
2023-02-23T22:59:30.500Z,10.30
2023-02-23T23:02:33.610Z,10.40
2023-02-23T23:05:37.414Z,10.40
2023-02-23T23:08:42.169Z,10.30
2023-02-23T23:11:45.309Z,10.40
2023-02-23T23:14:49.575Z,10.40
2023-02-23T23:17:52.504Z,10.40
2023-02-23T23:20:55.555Z,10.40
2023-02-23T23:24:01.174Z,10.40
2023-02-23T23:27:08.187Z,10.40
2023-02-23T23:30:14.272Z,10.40
2023-02-23T23:33:18.828Z,10.40
2023-02-23T23:36:24.925Z,10.30
2023-02-23T23:39:28.428Z,10.30
2023-02-23T23:42:31.773Z,10.30
2023-02-23T23:45:40.358Z,10.40
2023-02-23T23:48:44.144Z,10.40
2023-02-23T23:51:50.033Z,10.40
2023-02-23T23:54:52.971Z,10.40
2023-02-23T23:57:55.848Z,10.40
